Terminal Aerodrome Forecast
Issued by NWS

Home | Current Version | Previous Version | Text Only | Print | Product List | Glossary On
Versions: 1 2 3 4 5 6 7 8 9 10 11 12 13 14 15 16 17 18 19
000
FTUS42 KGSP 070537
TAFAND
TAF
KAND 070537Z 0706/0806 00000KT P6SM FEW250
     FM070900 00000KT 5SM BR FEW250
     FM071200 25004KT P6SM FEW050
     FM071800 24008KT P6SM FEW060
     FM080000 21003KT P6SM FEW250=

USA.gov is the U.S. government's official web portal to all federal, state and local government web resources and services.